Flugplatz Hartenstein/ Thierfeld (UL)

Hier findest Du alle Informationen zum Flugplatz Hartenstein/ Thierfeld (UL).

Informationen für Piloten zum Flugplatz Hartenstein/ Thierfeld

Hier findest Du alle relevanten Informationen, die Du als Pilot benötigst, um Hartenstein/ Thierfeld anzufliegen.

Flugplatz: Hartenstein/ Thierfeld ICAO-Code: UL Flugplatz
Frequenz Turm: keine Mhz GAFOR Gebiet: -
Frequenz Ground: keine Mhz Mogas: nein
Platzrunde: N 0 ft Landegebühr: -
Platzhöhe: - Sunrise: 07:11 Uhr UTC
Pisten: 01/19 - 350 m x 20 m, ASPH Sunset: 15:03 Uhr UTC

Mitglieder, die in Hartenstein/ Thierfeld fliegen

Flugwetter am Flugplatz Hartenstein/ Thierfeld

Die METAR Information stammen aus EDHL (21.39 km entfernt).

METAR Code:
2022/10/23 12:20
EDHL 231220Z 15005KT 090V190 CAVOK 16/12 Q1013

Flugschulen am Flugplatz Hartenstein/ Thierfeld

Am Flugplatz Hartenstein/ Thierfeld gibt es leider keine Flugschule.

Benachbarte Flugplätze und Flugschulen

Es gibt 7 weitere Flugplätze in einem Umkreis von 50 km um den Flugplatz Hartenstein/ Thierfeld.

Jetzt anmelden

Passwort vergessen

Umfrage Archiv

Sendet Ihr ADS-B und/oder FLARM?

Ja
84.6 %
Nein
15.4 %
Stimmen: 254 | Diskussion
Anzeige: Roland Aircraft
Statistik Alle Mitglieder

Aktuell sind 45 Besucher online.

Anzeige: ULPower Aero Engines Anzeige: EasyVFR